Time;durP1;ratioP1;P1;durP2;ratioP2;P2;SDS_P1;SDS_P2;PMS_P1;PMS_P2;Temp;Humidity;BMP_temperature;BMP_pressure;BME280_temperature;BME280_humidity;BME280_pressure;Samples;Min_cycle;Max_cycle;Signal;HPM_P1;HPM_P2
2022/10/15 00:01:39;;;;;;;34.78;32.08;;;;;;;15.35;63.81;100653.28;5014125;28;20042;-76
2022/10/15 00:04:04;;;;;;;36.35;33.08;;;;;;;15.33;64.03;100655.44;5012562;28;20065;-72
2022/10/15 00:06:30;;;;;;;34.83;31.83;;;;;;;15.34;63.86;100659.78;5013440;28;20441;-72
2022/10/15 00:08:55;;;;;;;35.80;32.88;;;;;;;15.32;64.04;100654.66;5012097;28;20449;-72
2022/10/15 00:11:24;;;;;;;36.78;33.90;;;;;;;15.31;64.21;100654.91;5012277;28;20479;-73
2022/10/15 00:13:53;;;;;;;34.80;32.03;;;;;;;15.31;64.09;100666.59;5014031;28;20140;-75
2022/10/15 00:16:21;;;;;;;35.90;32.30;;;;;;;15.30;63.90;100656.81;5013478;28;20076;-72
2022/10/15 00:18:47;;;;;;;33.70;30.98;;;;;;;15.28;64.00;100659.00;5013853;28;20025;-72
2022/10/15 00:21:14;;;;;;;34.83;32.03;;;;;;;15.28;64.06;100656.28;5013794;28;20032;-72
2022/10/15 00:23:40;;;;;;;33.80;30.92;;;;;;;15.27;64.17;100664.69;5014062;28;20030;-72
2022/10/15 00:26:07;;;;;;;36.63;33.80;;;;;;;15.26;64.17;100657.66;5012464;28;20034;-71
2022/10/15 00:28:33;;;;;;;33.38;30.90;;;;;;;15.25;64.05;100656.03;5013818;28;20029;-73
2022/10/15 00:31:00;;;;;;;34.00;31.48;;;;;;;15.25;64.18;100664.19;5014218;28;20117;-74
2022/10/15 00:33:25;;;;;;;35.22;32.35;;;;;;;15.23;64.00;100656.28;5013749;28;20045;-72
2022/10/15 00:36:01;;;;;;;35.92;32.92;;;;;;;15.23;64.44;100659.00;5014485;28;20042;-72
2022/10/15 00:38:27;;;;;;;34.92;31.83;;;;;;;15.21;64.12;100649.50;5013287;28;20053;-73
2022/10/15 00:40:52;;;;;;;36.47;33.65;;;;;;;15.20;64.35;100658.75;5012418;28;20030;-75
2022/10/15 00:43:43;;;;;;;35.47;32.35;;;;;;;15.20;64.07;100653.31;5012631;28;20026;-75
2022/10/15 00:46:33;;;;;;;38.35;34.92;;;;;;;15.18;64.17;100653.59;5012529;28;20033;-73
2022/10/15 00:49:14;;;;;;;37.65;34.08;;;;;;;15.16;64.07;100647.59;5013550;28;20117;-73
2022/10/15 00:51:43;;;;;;;37.55;33.65;;;;;;;15.14;64.08;100645.16;5013307;28;20371;-72
2022/10/15 00:54:11;;;;;;;37.97;35.00;;;;;;;15.15;64.57;100660.38;5013930;28;20080;-73
2022/10/15 00:56:38;;;;;;;35.17;32.38;;;;;;;15.15;64.34;100659.56;5013482;28;20041;-73
2022/10/15 00:59:05;;;;;;;38.05;34.55;;;;;;;15.14;64.42;100653.34;5012203;28;20466;-72
2022/10/15 01:01:30;;;;;;;36.10;33.00;;;;;;;15.14;64.20;100653.34;5013538;28;20033;-72
2022/10/15 01:03:56;;;;;;;35.83;32.70;;;;;;;15.13;64.17;100657.13;5012359;28;20030;-75
2022/10/15 01:06:23;;;;;;;34.58;31.98;;;;;;;15.12;64.46;100658.22;5013135;28;20044;-72
2022/10/15 01:08:49;;;;;;;38.75;35.47;;;;;;;15.12;64.06;100657.41;5016567;28;20038;-73
2022/10/15 01:11:39;;;;;;;35.85;32.92;;;;;;;15.12;64.16;100649.25;5016302;28;20037;-72
2022/10/15 01:14:07;;;;;;;37.53;34.28;;;;;;;15.11;64.29;100648.41;5017456;28;20030;-72
2022/10/15 01:16:54;;;;;;;35.95;33.28;;;;;;;15.10;64.53;100646.00;5016862;28;20504;-74
2022/10/15 01:19:33;;;;;;;32.78;30.35;;;;;;;15.08;64.62;100632.66;5017044;28;20029;-72
2022/10/15 01:22:11;;;;;;;;;;;;;;;15.08;64.27;100634.56;5017226;28;20030;-74
2022/10/15 01:24:50;;;;;;;36.88;30.38;;;;;;;15.06;64.46;100625.84;5017609;28;19909;-73
2022/10/15 01:27:36;;;;;;;36.92;33.75;;;;;;;15.05;64.46;100627.75;5017413;28;20037;-72
2022/10/15 01:30:24;;;;;;;36.38;33.15;;;;;;;15.04;64.51;100628.03;5017181;28;20112;-73
2022/10/15 01:32:59;;;;;;;33.20;30.73;;;;;;;15.03;64.61;100631.84;5017120;28;20048;-73
2022/10/15 01:35:43;;;;;;;36.58;33.53;;;;;;;15.03;64.58;100624.50;5016601;28;20466;-72
2022/10/15 01:38:17;;;;;;;35.58;32.25;;;;;;;15.02;64.41;100622.88;5016878;28;20046;-72
2022/10/15 01:41:09;;;;;;;35.60;32.53;;;;;;;15.02;64.58;100625.59;5016997;28;20058;-72
2022/10/15 01:43:58;;;;;;;36.15;33.05;;;;;;;15.02;64.84;100630.19;5016777;28;20112;-73
2022/10/15 01:46:28;;;;;;;;;;;;;;;15.00;64.61;100622.34;5017287;28;20108;-73
2022/10/15 01:48:56;;;;;;;35.22;31.92;;;;;;;14.99;64.44;100625.31;5017147;28;19915;-74
2022/10/15 01:51:24;;;;;;;34.70;31.67;;;;;;;15.00;64.57;100624.25;5016779;28;20470;-72
2022/10/15 01:53:51;;;;;;;32.92;30.52;;;;;;;14.99;64.44;100619.88;5016530;28;20459;-71
2022/10/15 01:56:20;;;;;;;37.33;34.03;;;;;;;14.98;64.61;100619.06;5016135;28;20104;-72
2022/10/15 01:58:49;;;;;;;34.25;31.42;;;;;;;14.98;64.87;100616.34;5016315;28;20112;-72
2022/10/15 02:01:15;;;;;;;;;;;;;;;14.96;64.51;100615.81;5016858;28;20026;-74
2022/10/15 02:03:48;;;;;;;37.08;33.85;;;;;;;14.96;64.94;100598.69;5016268;28;19910;-74
2022/10/15 02:06:22;;;;;;;34.13;31.35;;;;;;;14.95;64.77;100605.22;5014912;28;20061;-71
2022/10/15 02:09:12;;;;;;;36.95;33.83;;;;;;;14.95;64.97;100608.75;5016484;28;20076;-73
2022/10/15 02:11:58;;;;;;;32.88;29.92;;;;;;;14.95;64.93;100599.78;5014978;28;20026;-74
2022/10/15 02:14:40;;;;;;;34.10;31.15;;;;;;;14.96;64.84;100601.41;5015561;28;20026;-72
2022/10/15 02:17:09;;;;;;;37.55;34.22;;;;;;;14.93;64.78;100595.41;5016011;28;20471;-72
2022/10/15 02:20:06;;;;;;;34.50;31.63;;;;;;;14.95;64.68;100591.63;5015864;28;20041;-74
2022/10/15 02:22:38;;;;;;;34.40;31.38;;;;;;;14.93;64.92;100586.44;4992787;28;20042;-71
2022/10/15 02:25:05;;;;;;;34.70;31.88;;;;;;;14.92;64.67;100585.63;5016463;28;20036;-78
2022/10/15 02:27:33;;;;;;;36.15;33.10;;;;;;;14.92;64.49;100573.94;5015892;28;20026;-73
2022/10/15 02:30:02;;;;;;;37.55;34.42;;;;;;;14.94;65.18;100579.91;4998572;28;20176;-73
2022/10/15 02:32:30;;;;;;;35.58;32.53;;;;;;;14.95;65.05;100572.59;5015721;28;20033;-73
2022/10/15 02:34:58;;;;;;;33.72;31.08;;;;;;;14.95;65.21;100567.13;5015744;28;20034;-71
2022/10/15 02:37:27;;;;;;;34.90;31.83;;;;;;;14.92;65.05;100561.16;5015892;28;20026;-74
2022/10/15 02:39:53;;;;;;;34.70;32.03;;;;;;;14.94;64.88;100560.88;5016126;28;20458;-73
2022/10/15 02:42:18;;;;;;;37.17;33.70;;;;;;;14.94;65.15;100555.44;5014616;28;20045;-74
2022/10/15 02:44:44;;;;;;;36.63;33.38;;;;;;;14.93;64.89;100560.06;5015569;28;20037;-71
2022/10/15 02:47:10;;;;;;;35.58;32.53;;;;;;;14.95;64.93;100558.97;5015454;28;20033;-73
2022/10/15 02:49:36;;;;;;;37.25;34.13;;;;;;;14.93;65.17;100546.47;5015232;28;20109;-72
2022/10/15 02:52:01;;;;;;;36.17;32.83;;;;;;;14.93;65.05;100551.09;5015445;28;20471;-74
2022/10/15 02:54:26;;;;;;;36.58;33.38;;;;;;;14.91;65.23;100545.09;5014997;28;20061;-72
2022/10/15 02:56:52;;;;;;;34.72;31.75;;;;;;;14.93;65.30;100545.66;4997984;28;20088;-73
2022/10/15 02:59:18;;;;;;;33.92;31.33;;;;;;;14.91;65.04;100534.22;5013709;28;20540;-72
2022/10/15 03:01:44;;;;;;;34.53;31.90;;;;;;;14.91;65.32;100536.94;5015529;28;20038;-76
2022/10/15 03:04:09;;;;;;;32.63;29.90;;;;;;;14.91;65.19;100545.91;5013846;28;20052;-76
2022/10/15 03:06:35;;;;;;;35.50;32.47;;;;;;;14.91;65.22;100536.94;5013981;28;20459;-72
2022/10/15 03:09:00;;;;;;;36.67;33.42;;;;;;;14.91;65.27;100534.22;5014008;28;20387;-73
2022/10/15 03:11:25;;;;;;;36.17;32.85;;;;;;;14.91;65.20;100532.31;5015040;28;20113;-73
2022/10/15 03:13:51;;;;;;;31.45;29.17;;;;;;;14.91;65.34;100543.19;4997257;28;20042;-73
2022/10/15 03:16:16;;;;;;;34.65;31.95;;;;;;;14.90;65.24;100533.41;5013783;28;20438;-75
2022/10/15 03:18:42;;;;;;;35.08;31.80;;;;;;;14.91;65.02;100540.47;5014848;28;20049;-74
2022/10/15 03:21:07;;;;;;;35.85;32.60;;;;;;;14.90;64.94;100535.31;5014000;28;20026;-74
2022/10/15 03:23:32;;;;;;;33.72;31.08;;;;;;;14.90;65.12;100536.13;5013560;28;20032;-75
2022/10/15 03:26:00;;;;;;;36.25;33.30;;;;;;;14.89;65.01;100533.69;5014912;28;20076;-74
2022/10/15 03:28:26;;;;;;;36.67;33.43;;;;;;;14.88;64.95;100534.78;5013721;28;20030;-74
2022/10/15 03:30:51;;;;;;;35.22;32.00;;;;;;;14.88;64.84;100532.88;5012851;28;20331;-73
2022/10/15 03:33:16;;;;;;;35.22;32.42;;;;;;;14.88;65.21;100534.78;5014428;28;20030;-74
2022/10/15 03:35:42;;;;;;;35.22;32.42;;;;;;;14.87;65.18;100525.00;5014895;28;20454;-73
2022/10/15 03:38:08;;;;;;;33.60;30.98;;;;;;;14.88;65.19;100529.34;5012987;28;20506;-73
2022/10/15 03:40:34;;;;;;;34.90;31.70;;;;;;;14.87;65.09;100533.16;5014445;28;20433;-74
2022/10/15 03:42:59;;;;;;;34.63;31.88;;;;;;;14.87;65.01;100530.44;5014535;28;20033;-74
2022/10/15 03:45:25;;;;;;;33.03;30.55;;;;;;;14.86;65.46;100529.63;5013325;28;20536;-74
2022/10/15 03:47:51;;;;;;;36.47;33.38;;;;;;;14.85;65.26;100519.84;5014437;28;20040;-73
2022/10/15 03:50:17;;;;;;;37.50;33.75;;;;;;;14.85;65.08;100522.56;5014037;28;20095;-73
2022/10/15 03:52:43;;;;;;;36.08;32.85;;;;;;;14.84;65.06;100523.66;4996831;28;20068;-75
2022/10/15 03:55:09;;;;;;;35.35;32.58;;;;;;;14.86;65.18;100534.25;5014631;28;20459;-73
2022/10/15 03:57:36;;;;;;;34.67;31.95;;;;;;;14.86;65.29;100531.53;5014213;28;20034;-72
2022/10/15 04:00:03;;;;;;;36.60;33.30;;;;;;;14.85;65.21;100527.19;5014153;28;20038;-73
2022/10/15 04:02:30;;;;;;;37.42;34.22;;;;;;;14.85;65.01;100536.16;5014141;28;20037;-74
2022/10/15 04:04:56;;;;;;;32.15;29.63;;;;;;;14.83;64.99;100524.72;5014167;28;20033;-72
2022/10/15 04:07:21;;;;;;;35.40;32.25;;;;;;;14.83;65.30;100538.31;5014587;28;20041;-74
2022/10/15 04:09:47;;;;;;;34.55;31.65;;;;;;;14.84;65.19;100536.41;5014113;28;20038;-74
2022/10/15 04:12:13;;;;;;;37.35;33.90;;;;;;;14.83;65.21;100541.06;5012869;28;20374;-73
2022/10/15 04:14:39;;;;;;;34.78;31.70;;;;;;;14.83;64.91;100543.75;5012731;28;20117;-73
2022/10/15 04:17:04;;;;;;;33.10;29.80;;;;;;;14.82;65.31;100536.72;5012711;28;20060;-74
2022/10/15 04:19:29;;;;;;;39.28;35.47;;;;;;;14.82;65.17;100536.72;5013792;28;20376;-75
2022/10/15 04:21:55;;;;;;;31.90;29.30;;;;;;;14.82;64.84;100536.72;5014278;28;20449;-75
2022/10/15 04:24:20;;;;;;;38.92;35.20;;;;;;;14.83;64.98;100540.25;5013854;28;20030;-75
2022/10/15 04:26:46;;;;;;;34.60;31.55;;;;;;;14.82;65.03;100527.75;5012414;28;20515;-74
2022/10/15 04:29:11;;;;;;;38.08;34.47;;;;;;;14.82;65.17;100525.03;5013830;28;20088;-76
2022/10/15 04:31:36;;;;;;;39.28;35.53;;;;;;;14.81;65.38;100524.19;4996572;28;20022;-76
2022/10/15 04:34:03;;;;;;;37.78;32.00;;;;;;;14.81;65.33;100526.09;5012631;28;20034;-76
2022/10/15 04:36:28;;;;;;;37.20;33.67;;;;;;;14.81;65.21;100521.47;5013368;28;20030;-75
2022/10/15 04:38:54;;;;;;;36.28;32.95;;;;;;;14.81;65.49;100521.47;5013724;28;20041;-76
2022/10/15 04:41:19;;;;;;;35.78;32.50;;;;;;;14.82;65.35;100528.56;5013631;28;20029;-77
2022/10/15 04:43:44;;;;;;;34.67;31.33;;;;;;;14.81;65.69;100521.47;5017723;28;20521;-75
2022/10/15 04:46:10;;;;;;;34.50;31.83;;;;;;;14.81;65.62;100520.66;5020241;28;20041;-76
2022/10/15 04:48:37;;;;;;;35.92;32.53;;;;;;;14.81;65.55;100523.38;5018975;28;20386;-74
2022/10/15 04:51:07;;;;;;;34.20;31.15;;;;;;;14.80;65.47;100519.03;5020125;28;20041;-76
2022/10/15 04:53:33;;;;;;;37.17;34.03;;;;;;;14.81;65.64;100526.91;5020575;28;20446;-76
2022/10/15 04:56:04;;;;;;;32.83;30.33;;;;;;;14.80;65.28;100519.03;5020681;28;20044;-74
2022/10/15 04:58:33;;;;;;;34.58;31.50;;;;;;;14.80;65.75;100521.75;5020549;28;20041;-74
2022/10/15 05:01:01;;;;;;;32.10;29.58;;;;;;;14.80;65.83;100521.75;5020064;28;20471;-78
2022/10/15 05:03:27;;;;;;;36.13;32.55;;;;;;;14.80;65.75;100529.91;5020020;28;20513;-75
2022/10/15 05:05:52;;;;;;;35.13;31.85;;;;;;;14.79;65.63;100523.69;5020839;28;20065;-75
2022/10/15 05:08:17;;;;;;;31.52;29.10;;;;;;;14.79;65.46;100529.13;5019357;28;20034;-75
2022/10/15 05:10:43;;;;;;;31.98;29.35;;;;;;;14.79;65.38;100523.69;5019979;28;20059;-75
2022/10/15 05:13:08;;;;;;;31.17;28.60;;;;;;;14.79;65.73;100528.28;5018869;28;20057;-74
2022/10/15 05:15:34;;;;;;;29.10;27.20;;;;;;;14.78;65.76;100524.75;5020211;28;20090;-76
2022/10/15 05:17:59;;;;;;;30.85;28.23;;;;;;;14.79;65.70;100522.84;5019968;28;20026;-75
2022/10/15 05:20:24;;;;;;;36.13;32.75;;;;;;;14.79;65.11;100528.28;5018750;28;20029;-74
2022/10/15 05:22:50;;;;;;;30.33;28.08;;;;;;;14.79;65.31;100523.69;5018408;28;20073;-75
2022/10/15 05:25:15;;;;;;;33.47;30.52;;;;;;;14.79;65.39;100523.69;5019910;28;20030;-75
2022/10/15 05:27:41;;;;;;;32.63;30.10;;;;;;;14.78;65.72;100519.31;5019731;28;20034;-75
2022/10/15 05:30:06;;;;;;;35.15;32.15;;;;;;;14.79;65.70;100512.81;5019541;28;20095;-76
2022/10/15 05:32:32;;;;;;;36.92;33.80;;;;;;;14.78;65.55;100513.88;5018461;28;20038;-76
2022/10/15 05:34:57;;;;;;;33.78;31.08;;;;;;;14.79;65.54;100520.13;5019792;28;20112;-75
2022/10/15 05:37:22;;;;;;;33.28;30.13;;;;;;;14.78;65.87;100513.88;5002090;28;20073;-77
2022/10/15 05:39:48;;;;;;;35.35;32.42;;;;;;;14.78;65.68;100511.16;5019163;28;20057;-74
2022/10/15 05:42:13;;;;;;;31.73;29.13;;;;;;;14.79;65.58;100517.41;5018477;28;20378;-74
2022/10/15 05:44:39;;;;;;;35.30;32.25;;;;;;;14.78;65.46;100513.88;5019605;28;20029;-76
2022/10/15 05:47:10;;;;;;;34.83;31.55;;;;;;;14.78;65.69;100508.44;5019662;28;20572;-74
2022/10/15 05:49:35;;;;;;;33.58;30.88;;;;;;;14.78;65.88;100513.88;5019866;28;20041;-74
2022/10/15 05:52:01;;;;;;;33.60;30.67;;;;;;;14.79;65.64;100517.41;5018463;28;20029;-76
2022/10/15 05:54:26;;;;;;;35.42;31.85;;;;;;;14.78;65.72;100513.88;5017259;28;20034;-77
2022/10/15 05:56:51;;;;;;;32.05;29.55;;;;;;;14.79;65.83;100511.97;5016209;28;20041;-74
2022/10/15 05:59:17;;;;;;;32.45;29.88;;;;;;;14.78;65.60;100515.78;5016376;28;20038;-75
2022/10/15 06:01:42;;;;;;;31.65;29.17;;;;;;;14.78;65.70;100510.34;4998794;28;20038;-74
2022/10/15 06:04:08;;;;;;;32.35;29.42;;;;;;;14.78;66.07;100502.19;5016362;28;20025;-75
2022/10/15 06:06:33;;;;;;;32.47;29.95;;;;;;;14.78;65.65;100510.34;5015253;28;20390;-74
2022/10/15 06:09:00;;;;;;;31.42;28.83;;;;;;;14.79;65.54;100509.25;5016223;28;20100;-74
2022/10/15 06:11:26;;;;;;;30.98;28.60;;;;;;;14.78;65.78;100513.88;5016201;28;20030;-77
2022/10/15 06:13:52;;;;;;;32.35;29.73;;;;;;;14.77;65.75;100511.44;5014881;28;20140;-75
2022/10/15 06:16:17;;;;;;;32.40;29.90;;;;;;;14.77;65.72;100516.88;5016142;28;20037;-77
2022/10/15 06:18:43;;;;;;;30.40;28.17;;;;;;;14.76;65.58;100516.03;5016175;28;20030;-74
2022/10/15 06:21:10;;;;;;;32.47;30.05;;;;;;;14.76;65.65;100515.25;5016039;28;20034;-74
2022/10/15 06:23:36;;;;;;;34.53;31.60;;;;;;;14.77;65.31;100508.72;5015634;28;20030;-74
2022/10/15 06:26:06;;;;;;;34.88;31.73;;;;;;;14.78;65.40;100510.34;5015635;28;20030;-75
2022/10/15 06:28:32;;;;;;;34.88;31.98;;;;;;;14.78;65.64;100513.88;5015773;28;20053;-76
2022/10/15 06:30:58;;;;;;;33.67;30.67;;;;;;;14.78;65.83;100508.44;5015851;28;20458;-75
2022/10/15 06:33:24;;;;;;;35.20;32.17;;;;;;;14.78;65.57;100513.06;5015820;28;20030;-74
2022/10/15 06:35:49;;;;;;;36.05;32.67;;;;;;;14.79;65.58;100509.25;5016191;28;20032;-75
2022/10/15 06:38:15;;;;;;;32.63;29.90;;;;;;;14.78;66.04;100507.63;5014039;28;20054;-75
2022/10/15 06:40:40;;;;;;;32.58;30.02;;;;;;;14.78;65.78;100510.34;5015808;28;20051;-75
2022/10/15 06:43:07;;;;;;;32.33;29.58;;;;;;;14.78;65.68;100505.72;5015810;28;20034;-76
2022/10/15 06:45:37;;;;;;;34.95;31.35;;;;;;;14.78;65.85;100508.44;5015522;28;20505;-75
2022/10/15 06:48:04;;;;;;;35.78;32.70;;;;;;;14.79;65.80;100512.81;5014390;28;20038;-75
2022/10/15 06:50:35;;;;;;;31.10;28.45;;;;;;;14.79;65.77;100503.81;5014313;28;20121;-75
2022/10/15 06:53:01;;;;;;;33.28;30.63;;;;;;;14.79;65.87;100520.97;5015502;28;20033;-76
2022/10/15 06:55:27;;;;;;;30.23;28.05;;;;;;;14.79;65.89;100510.06;5015377;28;20083;-77
2022/10/15 06:57:53;;;;;;;31.50;29.05;;;;;;;14.80;65.83;100519.03;5015326;28;20033;-74
2022/10/15 07:00:19;;;;;;;35.72;32.15;;;;;;;14.80;65.72;100513.59;5015669;28;20033;-76
2022/10/15 07:02:44;;;;;;;34.65;31.42;;;;;;;14.81;66.13;100517.94;5015400;28;20037;-77
2022/10/15 07:05:10;;;;;;;33.05;30.25;;;;;;;14.80;65.91;100508.16;5015009;28;20386;-76
2022/10/15 07:07:35;;;;;;;34.05;31.13;;;;;;;14.80;65.90;100511.69;5015306;28;20165;-76
2022/10/15 07:10:00;;;;;;;31.83;29.33;;;;;;;14.80;66.03;100502.72;5015366;28;20083;-75
2022/10/15 07:12:26;;;;;;;33.88;31.00;;;;;;;14.80;65.83;100505.44;5013451;28;20041;-75
2022/10/15 07:14:51;;;;;;;34.92;31.83;;;;;;;14.81;66.33;100504.34;5013355;28;20046;-75
2022/10/15 07:17:16;;;;;;;34.17;31.08;;;;;;;14.81;66.08;100498.91;5014957;28;20061;-75
2022/10/15 07:19:42;;;;;;;35.78;32.72;;;;;;;14.81;66.29;100505.16;5013608;28;20030;-77
2022/10/15 07:22:08;;;;;;;35.22;32.38;;;;;;;14.81;66.24;100497.00;5014040;28;20041;-75
2022/10/15 07:24:34;;;;;;;33.38;29.85;;;;;;;14.81;66.48;100483.41;5014577;28;20029;-78
2022/10/15 07:26:59;;;;;;;30.08;27.83;;;;;;;14.82;66.27;100479.59;5014930;28;20120;-76
2022/10/15 07:29:24;;;;;;;34.22;30.90;;;;;;;14.82;66.31;100486.97;5013448;28;20044;-76
2022/10/15 07:31:50;;;;;;;32.38;29.83;;;;;;;14.82;66.35;100481.53;5013426;28;20033;-75
2022/10/15 07:34:16;;;;;;;32.60;29.90;;;;;;;14.82;66.40;100478.81;5013344;28;20355;-75
2022/10/15 07:36:43;;;;;;;33.28;30.38;;;;;;;14.82;66.49;100478.81;5015056;28;20033;-75
2022/10/15 07:39:09;;;;;;;31.38;28.75;;;;;;;14.83;66.48;100474.97;5014599;28;20474;-75
2022/10/15 07:41:35;;;;;;;34.00;30.98;;;;;;;14.82;66.18;100473.38;5013221;28;20036;-78
2022/10/15 07:44:00;;;;;;;31.02;28.52;;;;;;;14.84;66.16;100473.88;5014430;28;20034;-77
2022/10/15 07:46:25;;;;;;;32.90;30.15;;;;;;;14.84;66.27;100476.59;4997243;28;20442;-74
2022/10/15 07:48:51;;;;;;;35.15;31.52;;;;;;;14.84;66.83;100471.16;5013159;28;20088;-74
2022/10/15 07:51:16;;;;;;;31.80;29.13;;;;;;;14.84;66.44;100469.28;5014086;28;20037;-75
2022/10/15 07:53:43;;;;;;;32.35;29.67;;;;;;;14.85;66.66;100464.66;5014270;28;20062;-72
2022/10/15 07:56:10;;;;;;;33.17;30.35;;;;;;;14.85;66.30;100456.50;5014280;28;20390;-74
2022/10/15 07:58:37;;;;;;;32.67;29.87;;;;;;;14.85;66.73;100451.84;5014209;28;20033;-75
2022/10/15 08:01:05;;;;;;;31.02;28.52;;;;;;;14.85;66.11;100462.72;5013862;28;20028;-74
2022/10/15 08:03:30;;;;;;;32.28;29.67;;;;;;;14.86;66.40;100460.81;5013525;28;20053;-74
2022/10/15 08:05:58;;;;;;;32.35;29.85;;;;;;;14.87;66.28;100467.91;5014068;28;20117;-73
2022/10/15 08:08:23;;;;;;;32.30;29.80;;;;;;;14.87;66.41;100465.19;5014038;28;20034;-74
2022/10/15 08:10:49;;;;;;;32.75;29.80;;;;;;;14.88;66.52;100459.44;5013895;28;20087;-73
2022/10/15 08:13:14;;;;;;;30.00;27.95;;;;;;;14.88;66.11;100464.88;5014009;28;20117;-73
2022/10/15 08:15:40;;;;;;;33.45;30.38;;;;;;;14.89;66.66;100465.69;5012962;28;20037;-76
2022/10/15 08:18:06;;;;;;;31.65;29.20;;;;;;;14.89;66.44;100457.53;5012179;28;20042;-73
2022/10/15 08:20:32;;;;;;;32.75;30.33;;;;;;;14.90;66.70;100451.03;4996569;28;20117;-74
2022/10/15 08:22:57;;;;;;;32.55;30.00;;;;;;;14.89;66.89;100452.94;5012629;28;20489;-75
2022/10/15 08:25:23;;;;;;;31.35;29.02;;;;;;;14.90;66.93;100449.13;5014089;28;20092;-75
2022/10/15 08:27:48;;;;;;;33.88;31.05;;;;;;;14.91;66.75;100450.72;5012982;28;20037;-73
2022/10/15 08:30:13;;;;;;;31.13;27.27;;;;;;;14.92;66.68;100446.13;4996386;28;20104;-73
2022/10/15 08:32:39;;;;;;;31.27;28.60;;;;;;;14.92;67.19;100446.94;5012602;28;20083;-77
2022/10/15 08:35:05;;;;;;;29.08;26.77;;;;;;;14.95;67.05;100444.75;5013944;28;20066;-74
2022/10/15 08:37:30;;;;;;;30.08;27.83;;;;;;;14.95;66.79;100440.13;5012566;28;20434;-73
2022/10/15 08:39:55;;;;;;;29.88;27.65;;;;;;;14.95;67.17;100442.84;5013922;28;20057;-73
2022/10/15 08:42:30;;;;;;;29.77;27.50;;;;;;;14.97;66.94;100429.78;5013906;28;20451;-76
2022/10/15 08:45:01;;;;;;;32.05;29.45;;;;;;;14.97;66.93;100420.78;5012508;28;20033;-73
2022/10/15 08:47:38;;;;;;;30.85;28.35;;;;;;;14.99;67.34;100426.75;5013848;28;20026;-73
2022/10/15 08:50:40;;;;;;;30.42;28.02;;;;;;;15.00;67.14;100418.34;5013803;28;20029;-79
2022/10/15 08:53:12;;;;;;;29.20;27.15;;;;;;;15.00;67.16;100409.38;5013800;28;20045;-74
2022/10/15 08:55:40;;;;;;;29.60;27.42;;;;;;;15.02;66.77;100413.44;5014128;28;20442;-74
2022/10/15 08:58:16;;;;;;;29.42;27.10;;;;;;;15.03;66.77;100412.31;5013221;28;20030;-73
2022/10/15 09:01:20;;;;;;;30.67;27.85;;;;;;;15.04;66.94;100413.94;5013539;28;20030;-74
2022/10/15 09:04:01;;;;;;;29.30;27.20;;;;;;;15.06;67.12;100405.50;4980705;28;20426;-74
2022/10/15 09:06:33;;;;;;;27.42;25.63;;;;;;;15.07;66.96;100405.25;5013765;28;20458;-73
2022/10/15 09:09:31;;;;;;;30.35;27.95;;;;;;;15.08;67.20;100401.41;5013833;28;20061;-72
2022/10/15 09:12:15;;;;;;;30.42;28.17;;;;;;;15.09;67.23;100402.22;5011610;28;20048;-73
2022/10/15 09:14:43;;;;;;;29.98;27.92;;;;;;;15.10;66.82;100398.44;5013330;28;20026;-75
2022/10/15 09:17:24;;;;;;;29.80;27.70;;;;;;;15.12;66.77;100399.78;5013234;28;20049;-73
2022/10/15 09:19:53;;;;;;;27.85;25.80;;;;;;;15.13;67.18;100406.03;5013134;28;20394;-76
2022/10/15 09:22:24;;;;;;;29.77;27.77;;;;;;;15.14;66.98;100402.19;5012014;28;20044;-72
2022/10/15 09:24:50;;;;;;;30.50;28.30;;;;;;;15.16;67.06;100402.72;5012265;28;20191;-75
2022/10/15 09:27:34;;;;;;;27.98;25.98;;;;;;;15.18;67.54;100402.47;5013254;28;20489;-73
2022/10/15 09:30:05;;;;;;;30.63;28.27;;;;;;;15.19;67.47;100404.06;5015385;28;20356;-73
2022/10/15 09:32:41;;;;;;;29.90;27.77;;;;;;;15.20;67.59;100390.19;5016991;28;20033;-73
2022/10/15 09:35:18;;;;;;;28.88;26.75;;;;;;;15.21;67.44;100393.72;5015771;28;20030;-72
2022/10/15 09:37:48;;;;;;;28.75;26.92;;;;;;;15.22;67.31;100382.59;5016476;28;20034;-73
2022/10/15 09:40:27;;;;;;;29.52;27.63;;;;;;;15.23;67.20;100381.47;5016556;28;20034;-73
2022/10/15 09:42:56;;;;;;;30.23;28.08;;;;;;;15.24;67.73;100374.91;5016724;28;20462;-73
2022/10/15 09:45:23;;;;;;;;;;;;;;;15.26;67.47;100374.66;5016043;28;20109;-72
2022/10/15 09:47:49;;;;;;;27.75;26.00;;;;;;;15.26;67.39;100374.66;5016088;28;20365;-73
2022/10/15 09:50:15;;;;;;;29.75;27.92;;;;;;;15.27;67.41;100365.38;5016045;28;20025;-72
2022/10/15 09:53:03;;;;;;;27.85;26.05;;;;;;;15.27;68.15;100371.66;5016572;28;20103;-72
2022/10/15 09:56:07;;;;;;;28.17;26.38;;;;;;;15.29;67.97;100374.88;5016123;28;20462;-72
2022/10/15 09:58:54;;;;;;;27.95;26.05;;;;;;;15.30;67.55;100368.38;5010618;28;20115;-73
2022/10/15 10:01:20;;;;;;;28.33;26.33;;;;;;;15.31;67.83;100369.97;5016196;28;20022;-73
2022/10/15 10:03:51;;;;;;;29.05;26.85;;;;;;;15.32;67.77;100368.06;5015944;28;20484;-73
2022/10/15 10:06:17;;;;;;;28.88;27.08;;;;;;;15.33;67.86;100367.00;5014509;28;20037;-74
2022/10/15 10:08:49;;;;;;;30.20;28.10;;;;;;;15.35;68.10;100370.25;5015569;28;20034;-73
2022/10/15 10:11:15;;;;;;;27.48;25.77;;;;;;;15.35;68.00;100365.59;5015773;28;20038;-74
2022/10/15 10:13:45;;;;;;;27.95;26.25;;;;;;;15.36;67.63;100367.22;5014728;28;20040;-75
2022/10/15 10:16:13;;;;;;;29.35;27.30;;;;;;;15.39;67.88;100374.00;5014219;28;20068;-73
2022/10/15 10:18:39;;;;;;;28.98;26.95;;;;;;;15.40;68.09;100364.75;5015290;28;20034;-73
2022/10/15 10:21:21;;;;;;;30.60;28.70;;;;;;;15.43;68.00;100374.25;5014426;28;20354;-74
2022/10/15 10:23:47;;;;;;;28.90;27.08;;;;;;;15.43;67.97;100366.09;5015231;28;20116;-72
2022/10/15 10:26:13;;;;;;;28.85;26.70;;;;;;;15.44;68.17;100367.72;5015609;28;20129;-72
2022/10/15 10:28:48;;;;;;;27.77;26.17;;;;;;;15.45;68.50;100372.88;5014151;28;20029;-73
2022/10/15 10:31:13;;;;;;;28.35;26.35;;;;;;;15.46;68.39;100377.22;5014685;28;20387;-72
2022/10/15 10:33:39;;;;;;;28.67;26.98;;;;;;;15.47;68.56;100378.88;5015252;28;20053;-73
2022/10/15 10:36:07;;;;;;;29.85;28.00;;;;;;;15.49;68.56;100368.47;5014313;28;20034;-74
2022/10/15 10:38:36;;;;;;;27.40;25.80;;;;;;;15.50;68.66;100366.59;5013684;28;20445;-73
2022/10/15 10:41:08;;;;;;;30.65;28.65;;;;;;;15.52;68.79;100367.09;5013469;28;20481;-73
2022/10/15 10:43:38;;;;;;;28.65;26.95;;;;;;;15.52;68.77;100373.38;5015846;28;20113;-73
2022/10/15 10:46:23;;;;;;;31.00;29.15;;;;;;;15.54;69.14;100373.88;5014932;28;20036;-74
2022/10/15 10:48:51;;;;;;;26.80;25.38;;;;;;;15.54;68.86;100373.06;5014437;28;20057;-73
2022/10/15 10:51:24;;;;;;;28.42;26.80;;;;;;;15.56;68.89;100373.59;5014915;28;20084;-73
2022/10/15 10:54:13;;;;;;;28.75;27.13;;;;;;;15.58;68.84;100365.97;5015142;28;20069;-73
2022/10/15 10:56:43;;;;;;;29.30;27.52;;;;;;;15.60;68.60;100358.34;5015233;28;20026;-74
2022/10/15 10:59:18;;;;;;;29.55;27.45;;;;;;;15.62;68.87;100363.47;5014484;28;20034;-73
2022/10/15 11:01:44;;;;;;;26.83;25.35;;;;;;;15.61;68.77;100365.41;5015291;28;20029;-75
2022/10/15 11:04:17;;;;;;;29.17;27.15;;;;;;;15.63;68.64;100368.66;5014413;28;20478;-75
2022/10/15 11:07:09;;;;;;;28.70;27.10;;;;;;;15.65;68.98;100369.19;5014746;28;20030;-74
2022/10/15 11:09:46;;;;;;;29.10;27.38;;;;;;;15.67;69.17;100360.72;5010920;28;20056;-75
2022/10/15 11:12:33;;;;;;;29.27;27.27;;;;;;;15.69;69.46;100361.25;5014663;28;20184;-73
2022/10/15 11:14:58;;;;;;;30.33;28.35;;;;;;;15.69;68.87;100361.25;5014583;28;20168;-73
2022/10/15 11:17:46;;;;;;;27.58;26.08;;;;;;;15.71;69.30;100361.81;5015697;28;20447;-73
2022/10/15 11:20:44;;;;;;;29.20;27.60;;;;;;;15.72;69.67;100375.16;5013700;28;20040;-74